createdAt,value
2022-12-14T00:01:58.319Z,-1.49
2022-12-14T00:06:59.822Z,-1.38
2022-12-14T00:12:01.284Z,-1.34
2022-12-14T00:17:02.777Z,-1.35
2022-12-14T00:22:04.203Z,-1.31
2022-12-14T00:27:05.669Z,-1.19
2022-12-14T00:32:07.146Z,-1.23
2022-12-14T00:37:08.636Z,-1.24
2022-12-14T00:42:10.267Z,-1.21
2022-12-14T00:47:11.697Z,-1.22
2022-12-14T00:52:13.197Z,-1.19
2022-12-14T00:57:14.718Z,-1.23
2022-12-14T01:02:16.323Z,-1.22
2022-12-14T01:07:17.939Z,-1.19
2022-12-14T01:12:19.459Z,-1.24
2022-12-14T01:17:21.068Z,-1.17
2022-12-14T01:22:22.565Z,-1.19
2022-12-14T01:27:24.078Z,-1.18
2022-12-14T01:32:25.567Z,-1.17
2022-12-14T01:37:27.066Z,-1.12
2022-12-14T01:42:28.496Z,-1.10
2022-12-14T01:47:41.555Z,-1.12
2022-12-14T01:52:47.116Z,-1.16
2022-12-14T01:57:51.344Z,-1.11
2022-12-14T02:03:09.039Z,-1.05
2022-12-14T02:08:11.694Z,-1.05
2022-12-14T02:13:28.016Z,-1.05
2022-12-14T02:18:31.817Z,-1.06
2022-12-14T02:23:51.953Z,-1.02
2022-12-14T02:29:27.135Z,-1.01
2022-12-14T02:34:31.469Z,-1.00
2022-12-14T02:39:40.175Z,-0.93
2022-12-14T02:44:59.748Z,-0.92
2022-12-14T02:50:22.951Z,-0.93
2022-12-14T02:55:50.083Z,-0.94
2022-12-14T03:00:54.383Z,-1.02
2022-12-14T03:06:05.419Z,-0.94
2022-12-14T03:11:07.549Z,-0.96
2022-12-14T03:16:14.553Z,-1.00
2022-12-14T03:21:21.545Z,-1.03
2022-12-14T03:26:29.119Z,-0.94
2022-12-14T03:31:33.798Z,-0.93
2022-12-14T03:36:43.776Z,-0.93
2022-12-14T03:42:11.223Z,-0.94
2022-12-14T03:47:21.719Z,-0.89
2022-12-14T03:52:38.386Z,-0.91
2022-12-14T03:58:02.076Z,-0.94
2022-12-14T04:03:23.603Z,-0.86
2022-12-14T04:08:33.801Z,-0.88
2022-12-14T04:13:40.347Z,-0.87
2022-12-14T04:18:45.723Z,-0.81
2022-12-14T04:23:57.334Z,-0.81
2022-12-14T04:29:15.648Z,-0.83
2022-12-14T04:34:20.665Z,-0.80
2022-12-14T04:39:29.204Z,-0.73
2022-12-14T04:44:42.569Z,-0.73
2022-12-14T04:49:49.823Z,-0.71
2022-12-14T04:55:03.340Z,-0.60
2022-12-14T05:00:05.759Z,-0.64
2022-12-14T05:05:18.517Z,-0.61
2022-12-14T05:10:32.071Z,-0.59
2022-12-14T05:15:44.330Z,-0.53
2022-12-14T05:20:47.166Z,-0.55
2022-12-14T05:25:49.213Z,-0.61
2022-12-14T05:30:51.656Z,-0.60
2022-12-14T05:35:54.923Z,-0.61
2022-12-14T05:40:56.374Z,-0.63
2022-12-14T05:45:59.332Z,-0.51
2022-12-14T05:51:08.903Z,-0.49
2022-12-14T05:56:10.939Z,-0.45
2022-12-14T06:01:18.541Z,-0.43
2022-12-14T06:06:20.745Z,-0.37
2022-12-14T06:11:23.261Z,-0.31
2022-12-14T06:16:25.882Z,-0.30
2022-12-14T06:21:33.384Z,-0.29
2022-12-14T06:26:36.039Z,-0.24
2022-12-14T06:31:37.492Z,-0.17
2022-12-14T06:36:41.267Z,-0.11
2022-12-14T06:41:43.373Z,-0.16
2022-12-14T06:46:45.036Z,-0.16
2022-12-14T06:51:46.522Z,-0.19
2022-12-14T06:56:48.276Z,-0.20
2022-12-14T07:01:50.327Z,-0.12
2022-12-14T07:06:52.079Z,-0.13
2022-12-14T07:11:53.490Z,-0.14
2022-12-14T07:16:54.968Z,-0.10
2022-12-14T07:21:56.392Z,-0.10
2022-12-14T07:26:58.097Z,-0.08
2022-12-14T07:31:59.608Z,-0.03
2022-12-14T07:37:01.021Z,0.04
2022-12-14T07:42:02.515Z,0.06
2022-12-14T07:47:04.236Z,0.07
2022-12-14T07:52:05.661Z,0.06
2022-12-14T07:57:07.296Z,0.03
2022-12-14T08:02:11.393Z,0.01
2022-12-14T08:07:12.902Z,0.07
2022-12-14T08:12:14.378Z,0.12
2022-12-14T08:17:15.812Z,0.13
2022-12-14T08:22:17.267Z,0.10
2022-12-14T08:27:18.738Z,0.10
2022-12-14T08:32:20.333Z,0.07
2022-12-14T08:37:21.747Z,0.13
2022-12-14T08:42:23.203Z,0.23
2022-12-14T08:47:24.674Z,0.22
2022-12-14T08:52:26.160Z,0.23
2022-12-14T08:57:27.835Z,0.22
2022-12-14T09:02:29.388Z,0.28
2022-12-14T09:07:31.873Z,0.32
2022-12-14T09:12:33.329Z,0.49
2022-12-14T09:17:34.850Z,0.58
2022-12-14T09:22:36.307Z,0.62
2022-12-14T09:27:37.742Z,0.66
2022-12-14T09:32:39.261Z,0.69
2022-12-14T09:37:40.748Z,0.77
2022-12-14T09:43:13.008Z,0.84
2022-12-14T09:48:19.734Z,0.87
2022-12-14T09:53:22.122Z,0.88
2022-12-14T09:58:31.111Z,0.89
2022-12-14T10:03:41.898Z,0.97
2022-12-14T10:08:56.954Z,0.98
2022-12-14T10:14:20.896Z,0.96
2022-12-14T10:19:45.775Z,0.97
2022-12-14T10:24:54.628Z,1.01
2022-12-14T10:30:08.713Z,1.12
2022-12-14T10:35:19.608Z,1.29
2022-12-14T10:40:34.063Z,1.33
2022-12-14T10:45:51.345Z,1.32
2022-12-14T10:51:02.978Z,1.55
2022-12-14T10:56:11.301Z,1.74
2022-12-14T11:01:14.067Z,1.92
2022-12-14T11:06:19.151Z,2.19
2022-12-14T11:11:24.746Z,2.34
2022-12-14T11:16:38.779Z,3.29
2022-12-14T11:21:41.747Z,5.69
2022-12-14T11:26:43.920Z,7.29
2022-12-14T11:31:48.335Z,7.30
2022-12-14T11:36:50.084Z,6.58
2022-12-14T11:41:57.259Z,6.30
2022-12-14T11:46:58.647Z,5.72
2022-12-14T11:52:05.788Z,5.31
2022-12-14T11:57:13.150Z,5.06
2022-12-14T12:02:32.438Z,4.98
2022-12-14T12:07:36.693Z,4.51
2022-12-14T12:12:52.246Z,4.33
2022-12-14T12:18:01.160Z,4.04
2022-12-14T12:23:13.252Z,3.78
2022-12-14T12:28:21.904Z,3.67
2022-12-14T12:33:28.732Z,3.49
2022-12-14T12:38:36.293Z,3.41
2022-12-14T12:43:49.891Z,3.38
2022-12-14T12:49:18.352Z,3.25
2022-12-14T12:54:37.820Z,3.19
2022-12-14T12:59:49.864Z,3.27
2022-12-14T13:04:53.205Z,3.34
2022-12-14T13:10:05.762Z,3.23
2022-12-14T13:15:20.859Z,3.21
2022-12-14T13:20:28.820Z,3.03
2022-12-14T13:25:48.666Z,2.97
2022-12-14T13:31:08.712Z,2.88
2022-12-14T13:36:31.014Z,2.86
2022-12-14T13:41:59.560Z,2.88
2022-12-14T13:47:03.303Z,2.83
2022-12-14T13:52:05.590Z,2.86
2022-12-14T13:57:20.501Z,2.79
2022-12-14T14:02:50.652Z,2.75
2022-12-14T14:07:57.943Z,2.76
2022-12-14T14:13:00.959Z,2.73
2022-12-14T14:18:25.795Z,2.73
2022-12-14T14:23:32.295Z,2.75
2022-12-14T14:28:34.224Z,2.83
2022-12-14T14:33:45.236Z,2.83
2022-12-14T14:38:48.559Z,2.80
2022-12-14T14:43:59.934Z,2.78
2022-12-14T14:49:01.649Z,2.86
2022-12-14T14:55:03.586Z,2.79
2022-12-14T14:59:50.884Z,2.84
2022-12-14T15:04:56.906Z,2.81
2022-12-14T15:10:20.676Z,2.91
2022-12-14T15:15:36.992Z,2.94
2022-12-14T15:20:40.468Z,2.94
2022-12-14T15:25:43.307Z,2.92
2022-12-14T15:30:48.067Z,2.90
2022-12-14T15:35:49.631Z,2.98
2022-12-14T15:40:59.222Z,3.08
2022-12-14T15:46:04.546Z,3.25
2022-12-14T15:51:11.045Z,3.51
2022-12-14T15:56:42.598Z,3.69
2022-12-14T16:01:53.217Z,3.92
2022-12-14T16:07:07.816Z,4.10
2022-12-14T16:12:24.777Z,4.25
2022-12-14T16:17:36.317Z,4.36
2022-12-14T16:22:40.235Z,4.44
2022-12-14T16:27:44.594Z,4.52
2022-12-14T16:32:49.775Z,4.57
2022-12-14T16:37:54.420Z,4.67
2022-12-14T16:42:55.853Z,4.72
2022-12-14T16:48:06.705Z,4.79
2022-12-14T16:53:14.460Z,4.84
2022-12-14T16:58:17.693Z,4.89
2022-12-14T17:03:22.146Z,4.95
2022-12-14T17:08:23.816Z,4.98
2022-12-14T17:13:25.848Z,5.06
2022-12-14T17:18:36.777Z,5.11
2022-12-14T17:23:41.316Z,5.15
2022-12-14T17:28:42.783Z,5.11
2022-12-14T17:33:44.384Z,5.07
2022-12-14T17:38:45.940Z,5.09
2022-12-14T17:43:51.163Z,5.15
2022-12-14T17:48:58.439Z,5.20
2022-12-14T17:54:03.096Z,5.18
2022-12-14T17:59:04.582Z,5.20
2022-12-14T18:04:06.301Z,5.19
2022-12-14T18:09:08.699Z,5.18
2022-12-14T18:14:13.982Z,5.21
2022-12-14T18:19:15.531Z,5.25
2022-12-14T18:24:20.282Z,5.24
2022-12-14T18:29:25.762Z,5.28
2022-12-14T18:34:27.269Z,5.22
2022-12-14T18:39:28.696Z,5.14
2022-12-14T18:44:30.169Z,5.21
2022-12-14T18:49:31.630Z,5.21
2022-12-14T18:54:33.095Z,5.15
2022-12-14T18:59:39.077Z,5.09
2022-12-14T19:04:47.873Z,5.05
2022-12-14T19:09:49.311Z,5.00
2022-12-14T19:14:50.837Z,4.95
2022-12-14T19:19:52.379Z,4.90
2022-12-14T19:24:53.859Z,4.83
2022-12-14T19:29:55.370Z,4.76
2022-12-14T19:34:56.857Z,4.76
2022-12-14T19:39:58.296Z,4.67
2022-12-14T19:44:59.766Z,4.68
2022-12-14T19:50:02.572Z,4.65
2022-12-14T19:55:04.335Z,4.67
2022-12-14T20:00:09.852Z,4.78
2022-12-14T20:05:11.320Z,4.78
2022-12-14T20:10:12.880Z,4.71
2022-12-14T20:15:14.363Z,4.68
2022-12-14T20:20:15.792Z,4.68
2022-12-14T20:25:17.403Z,4.64
2022-12-14T20:30:18.864Z,4.61
2022-12-14T20:35:20.332Z,4.65
2022-12-14T20:40:21.792Z,4.62
2022-12-14T20:45:23.281Z,4.54
2022-12-14T20:50:24.692Z,4.55
2022-12-14T20:55:26.128Z,4.50
2022-12-14T21:00:28.235Z,4.56
2022-12-14T21:05:29.861Z,4.54
2022-12-14T21:10:31.325Z,4.45
2022-12-14T21:15:32.782Z,4.33
2022-12-14T21:20:34.270Z,4.29
2022-12-14T21:25:35.684Z,4.25
2022-12-14T21:30:37.161Z,4.22
2022-12-14T21:35:40.464Z,4.15
2022-12-14T21:40:41.891Z,4.12
2022-12-14T21:45:45.708Z,4.09
2022-12-14T21:50:47.591Z,4.14
2022-12-14T21:55:50.261Z,4.18
2022-12-14T22:00:51.793Z,4.19
2022-12-14T22:05:53.326Z,4.21
2022-12-14T22:10:54.802Z,4.19
2022-12-14T22:15:56.382Z,4.17
2022-12-14T22:21:05.445Z,4.13
2022-12-14T22:26:07.192Z,4.16
2022-12-14T22:31:08.678Z,4.10
2022-12-14T22:36:10.124Z,4.04
2022-12-14T22:41:14.469Z,4.01
2022-12-14T22:46:15.978Z,4.09
2022-12-14T22:51:18.646Z,4.10
2022-12-14T22:56:23.019Z,4.08
2022-12-14T23:01:24.931Z,4.08
2022-12-14T23:06:27.185Z,4.12
2022-12-14T23:11:28.624Z,4.13
2022-12-14T23:16:30.218Z,4.07
2022-12-14T23:21:31.771Z,4.20
2022-12-14T23:26:33.288Z,4.24
2022-12-14T23:31:34.765Z,4.26
2022-12-14T23:36:36.199Z,4.21
2022-12-14T23:41:37.668Z,4.19
2022-12-14T23:46:39.152Z,4.15
2022-12-14T23:51:40.676Z,4.20
2022-12-14T23:56:42.089Z,4.21
